sensor_id;sensor_type;location;lat;lon;timestamp;pressure;altitude;pressure_sealevel;temperature;humidity
54994;BME280;40891;47.242;8.648;2022-12-29T00:01:16;96314.81;;;4.32;80.06
54994;BME280;40891;47.242;8.648;2022-12-29T00:03:41;96310.81;;;4.36;81.18
54994;BME280;40891;47.242;8.648;2022-12-29T00:06:07;96320.56;;;4.44;79.88
54994;BME280;40891;47.242;8.648;2022-12-29T00:08:32;96315.84;;;4.45;80.23
54994;BME280;40891;47.242;8.648;2022-12-29T00:11:08;96317.38;;;4.46;80.31
54994;BME280;40891;47.242;8.648;2022-12-29T00:13:34;96308.31;;;4.45;79.66
54994;BME280;40891;47.242;8.648;2022-12-29T00:16:19;96310.69;;;4.47;80.66
54994;BME280;40891;47.242;8.648;2022-12-29T00:18:44;96291.81;;;4.45;80.81
54994;BME280;40891;47.242;8.648;2022-12-29T00:21:20;96300.44;;;4.47;79.61
54994;BME280;40891;47.242;8.648;2022-12-29T00:24:05;96300.28;;;4.58;79.79
54994;BME280;40891;47.242;8.648;2022-12-29T00:26:40;96293.97;;;4.61;79.22
54994;BME280;40891;47.242;8.648;2022-12-29T00:29:24;96299.41;;;4.64;78.60
54994;BME280;40891;47.242;8.648;2022-12-29T00:32:09;96290.56;;;4.76;76.01
54994;BME280;40891;47.242;8.648;2022-12-29T00:34:53;96292.19;;;4.74;78.51
54994;BME280;40891;47.242;8.648;2022-12-29T00:37:42;96284.34;;;4.72;78.74
54994;BME280;40891;47.242;8.648;2022-12-29T00:40:27;96289.78;;;4.76;78.43
54994;BME280;40891;47.242;8.648;2022-12-29T00:43:11;96289.31;;;4.81;78.79
54994;BME280;40891;47.242;8.648;2022-12-29T00:45:55;96287.28;;;4.85;77.91
54994;BME280;40891;47.242;8.648;2022-12-29T00:48:20;96287.13;;;4.96;77.38
54994;BME280;40891;47.242;8.648;2022-12-29T00:51:04;96296.88;;;5.00;76.46
54994;BME280;40891;47.242;8.648;2022-12-29T00:53:30;96291.84;;;4.95;77.47
54994;BME280;40891;47.242;8.648;2022-12-29T00:55:55;96290.31;;;4.94;79.09
54994;BME280;40891;47.242;8.648;2022-12-29T00:58:21;96290.00;;;4.89;79.84
54994;BME280;40891;47.242;8.648;2022-12-29T01:00:46;96296.69;;;4.88;79.17
54994;BME280;40891;47.242;8.648;2022-12-29T01:03:11;96285.72;;;4.84;79.31
54994;BME280;40891;47.242;8.648;2022-12-29T01:05:37;96280.16;;;4.88;78.47
54994;BME280;40891;47.242;8.648;2022-12-29T01:08:02;96280.78;;;4.99;77.42
54994;BME280;40891;47.242;8.648;2022-12-29T01:10:28;96286.06;;;5.13;75.82
54994;BME280;40891;47.242;8.648;2022-12-29T01:12:53;96292.63;;;5.19;74.67
54994;BME280;40891;47.242;8.648;2022-12-29T01:15:18;96289.88;;;5.19;76.20
54994;BME280;40891;47.242;8.648;2022-12-29T01:17:44;96294.56;;;5.22;75.87
54994;BME280;40891;47.242;8.648;2022-12-29T01:20:10;96281.47;;;5.26;75.36
54994;BME280;40891;47.242;8.648;2022-12-29T01:22:36;96287.78;;;5.26;76.31
54994;BME280;40891;47.242;8.648;2022-12-29T01:25:03;96297.09;;;5.32;73.88
54994;BME280;40891;47.242;8.648;2022-12-29T01:27:28;96298.97;;;5.39;72.93
54994;BME280;40891;47.242;8.648;2022-12-29T01:29:53;96304.78;;;5.44;73.15
54994;BME280;40891;47.242;8.648;2022-12-29T01:32:19;96304.38;;;5.46;72.44
54994;BME280;40891;47.242;8.648;2022-12-29T01:34:44;96303.72;;;5.38;75.53
54994;BME280;40891;47.242;8.648;2022-12-29T01:37:10;96314.03;;;5.34;74.98
54994;BME280;40891;47.242;8.648;2022-12-29T01:39:35;96312.47;;;5.33;75.44
54994;BME280;40891;47.242;8.648;2022-12-29T01:42:00;96310.50;;;5.34;73.31
54994;BME280;40891;47.242;8.648;2022-12-29T01:47:21;96318.28;;;5.39;72.68
54994;BME280;40891;47.242;8.648;2022-12-29T01:49:48;96324.97;;;5.38;73.24
54994;BME280;40891;47.242;8.648;2022-12-29T01:52:14;96319.47;;;5.38;73.55
54994;BME280;40891;47.242;8.648;2022-12-29T01:54:42;96310.75;;;5.39;73.50
54994;BME280;40891;47.242;8.648;2022-12-29T01:57:17;96316.34;;;5.36;74.68
54994;BME280;40891;47.242;8.648;2022-12-29T01:59:49;96317.38;;;5.45;72.38
54994;BME280;40891;47.242;8.648;2022-12-29T02:02:16;96317.00;;;5.43;73.83
54994;BME280;40891;47.242;8.648;2022-12-29T02:04:42;96316.53;;;5.48;71.42
54994;BME280;40891;47.242;8.648;2022-12-29T02:07:21;96308.97;;;5.53;71.95
54994;BME280;40891;47.242;8.648;2022-12-29T02:09:48;96298.88;;;5.66;71.33
54994;BME280;40891;47.242;8.648;2022-12-29T02:12:16;96307.22;;;5.62;74.64
54994;BME280;40891;47.242;8.648;2022-12-29T02:14:43;96295.44;;;5.81;67.87
54994;BME280;40891;47.242;8.648;2022-12-29T02:17:40;96295.00;;;5.83;70.93
54994;BME280;40891;47.242;8.648;2022-12-29T02:31:30;96300.22;;;6.00;68.59
54994;BME280;40891;47.242;8.648;2022-12-29T02:39:40;96316.81;;;5.97;73.38
54994;BME280;40891;47.242;8.648;2022-12-29T02:42:27;96294.88;;;5.90;71.98
54994;BME280;40891;47.242;8.648;2022-12-29T02:45:07;96316.91;;;5.93;71.51
54994;BME280;40891;47.242;8.648;2022-12-29T02:50:42;96302.81;;;5.88;72.39
54994;BME280;40891;47.242;8.648;2022-12-29T02:53:13;96289.88;;;6.04;70.73
54994;BME280;40891;47.242;8.648;2022-12-29T02:55:47;96307.06;;;5.92;74.45
54994;BME280;40891;47.242;8.648;2022-12-29T02:58:21;96291.28;;;5.93;74.16
54994;BME280;40891;47.242;8.648;2022-12-29T03:03:48;96292.97;;;5.87;71.88
54994;BME280;40891;47.242;8.648;2022-12-29T03:06:40;96289.47;;;5.86;73.12
54994;BME280;40891;47.242;8.648;2022-12-29T03:12:13;96297.41;;;5.81;71.76
54994;BME280;40891;47.242;8.648;2022-12-29T03:15:09;96311.97;;;5.81;72.61
54994;BME280;40891;47.242;8.648;2022-12-29T03:17:58;96296.97;;;5.82;71.91
54994;BME280;40891;47.242;8.648;2022-12-29T03:20:38;96308.44;;;5.81;71.14
54994;BME280;40891;47.242;8.648;2022-12-29T03:23:05;96300.94;;;5.81;71.90
54994;BME280;40891;47.242;8.648;2022-12-29T03:25:34;96296.72;;;5.77;72.58
54994;BME280;40891;47.242;8.648;2022-12-29T03:28:04;96304.97;;;5.77;72.33
54994;BME280;40891;47.242;8.648;2022-12-29T03:30:33;96294.28;;;5.79;71.77
54994;BME280;40891;47.242;8.648;2022-12-29T03:33:02;96272.94;;;5.83;72.02
54994;BME280;40891;47.242;8.648;2022-12-29T03:35:31;96281.63;;;5.81;72.61
54994;BME280;40891;47.242;8.648;2022-12-29T03:38:08;96276.84;;;5.85;72.72
54994;BME280;40891;47.242;8.648;2022-12-29T03:40:38;96290.59;;;5.89;72.48
54994;BME280;40891;47.242;8.648;2022-12-29T03:43:05;96281.81;;;5.94;71.80
54994;BME280;40891;47.242;8.648;2022-12-29T03:45:31;96289.22;;;5.97;72.96
54994;BME280;40891;47.242;8.648;2022-12-29T03:47:56;96283.56;;;6.04;70.97
54994;BME280;40891;47.242;8.648;2022-12-29T03:50:22;96284.78;;;6.03;72.97
54994;BME280;40891;47.242;8.648;2022-12-29T03:52:47;96288.03;;;5.98;73.90
54994;BME280;40891;47.242;8.648;2022-12-29T03:55:13;96274.31;;;5.94;74.97
54994;BME280;40891;47.242;8.648;2022-12-29T03:57:38;96297.28;;;5.88;76.16
54994;BME280;40891;47.242;8.648;2022-12-29T04:00:05;96270.91;;;5.87;76.77
54994;BME280;40891;47.242;8.648;2022-12-29T04:02:31;96266.47;;;5.93;76.19
54994;BME280;40891;47.242;8.648;2022-12-29T04:04:56;96283.69;;;5.77;79.94
54994;BME280;40891;47.242;8.648;2022-12-29T04:07:21;96273.91;;;5.73;77.19
54994;BME280;40891;47.242;8.648;2022-12-29T04:09:47;96262.34;;;5.81;77.69
54994;BME280;40891;47.242;8.648;2022-12-29T04:12:12;96261.91;;;5.83;77.55
54994;BME280;40891;47.242;8.648;2022-12-29T04:14:39;96261.34;;;5.72;79.42
54994;BME280;40891;47.242;8.648;2022-12-29T04:17:04;96251.84;;;5.73;76.85
54994;BME280;40891;47.242;8.648;2022-12-29T04:19:30;96247.31;;;5.82;73.52
54994;BME280;40891;47.242;8.648;2022-12-29T04:21:55;96261.91;;;5.83;77.59
54994;BME280;40891;47.242;8.648;2022-12-29T04:24:21;96257.59;;;5.82;77.04
54994;BME280;40891;47.242;8.648;2022-12-29T04:26:46;96253.34;;;5.77;78.59
54994;BME280;40891;47.242;8.648;2022-12-29T04:29:11;96242.72;;;5.76;76.57
54994;BME280;40891;47.242;8.648;2022-12-29T04:31:37;96258.94;;;5.74;77.86
54994;BME280;40891;47.242;8.648;2022-12-29T04:34:02;96261.38;;;5.68;77.82
54994;BME280;40891;47.242;8.648;2022-12-29T04:36:28;96263.97;;;5.79;77.45
54994;BME280;40891;47.242;8.648;2022-12-29T04:38:53;96260.75;;;5.80;76.57
54994;BME280;40891;47.242;8.648;2022-12-29T04:41:18;96269.47;;;5.79;77.69
54994;BME280;40891;47.242;8.648;2022-12-29T04:43:44;96261.19;;;5.79;78.21
54994;BME280;40891;47.242;8.648;2022-12-29T04:46:09;96258.00;;;5.80;77.97
54994;BME280;40891;47.242;8.648;2022-12-29T04:48:34;96250.16;;;5.79;79.52
54994;BME280;40891;47.242;8.648;2022-12-29T04:51:00;96254.97;;;5.75;79.22
54994;BME280;40891;47.242;8.648;2022-12-29T04:53:25;96253.75;;;5.76;78.80
54994;BME280;40891;47.242;8.648;2022-12-29T04:55:52;96260.75;;;5.80;78.04
54994;BME280;40891;47.242;8.648;2022-12-29T04:58:18;96249.81;;;5.77;78.41
54994;BME280;40891;47.242;8.648;2022-12-29T05:00:44;96241.88;;;5.79;79.49
54994;BME280;40891;47.242;8.648;2022-12-29T05:03:09;96257.75;;;5.75;79.83
54994;BME280;40891;47.242;8.648;2022-12-29T05:05:34;96256.47;;;5.79;79.41
54994;BME280;40891;47.242;8.648;2022-12-29T05:08:00;96260.84;;;5.77;79.82
54994;BME280;40891;47.242;8.648;2022-12-29T05:10:25;96257.94;;;5.84;79.97
54994;BME280;40891;47.242;8.648;2022-12-29T05:12:51;96263.06;;;5.85;82.26
54994;BME280;40891;47.242;8.648;2022-12-29T05:15:16;96252.38;;;5.87;81.05
54994;BME280;40891;47.242;8.648;2022-12-29T05:17:41;96244.72;;;5.95;80.09
54994;BME280;40891;47.242;8.648;2022-12-29T05:20:07;96233.91;;;6.04;79.52
54994;BME280;40891;47.242;8.648;2022-12-29T05:22:33;96230.03;;;6.17;75.88
54994;BME280;40891;47.242;8.648;2022-12-29T05:24:58;96236.09;;;6.12;75.52
54994;BME280;40891;47.242;8.648;2022-12-29T05:27:24;96231.47;;;6.26;71.51
54994;BME280;40891;47.242;8.648;2022-12-29T05:29:49;96223.97;;;6.42;70.91
54994;BME280;40891;47.242;8.648;2022-12-29T05:32:15;96225.34;;;6.34;71.76
54994;BME280;40891;47.242;8.648;2022-12-29T05:34:40;96240.09;;;6.28;68.55
54994;BME280;40891;47.242;8.648;2022-12-29T05:37:05;96230.34;;;6.39;65.03
54994;BME280;40891;47.242;8.648;2022-12-29T05:39:31;96233.13;;;6.39;69.03
54994;BME280;40891;47.242;8.648;2022-12-29T05:41:56;96237.16;;;6.35;68.97
54994;BME280;40891;47.242;8.648;2022-12-29T05:44:21;96240.09;;;6.28;69.08
54994;BME280;40891;47.242;8.648;2022-12-29T05:46:47;96234.66;;;6.24;68.90
54994;BME280;40891;47.242;8.648;2022-12-29T05:49:12;96247.72;;;6.20;70.63
54994;BME280;40891;47.242;8.648;2022-12-29T05:51:37;96256.44;;;6.18;70.95
54994;BME280;40891;47.242;8.648;2022-12-29T05:54:03;96251.88;;;6.12;71.37
54994;BME280;40891;47.242;8.648;2022-12-29T05:56:28;96241.88;;;6.18;71.44
54994;BME280;40891;47.242;8.648;2022-12-29T05:58:53;96251.72;;;6.19;72.01
54994;BME280;40891;47.242;8.648;2022-12-29T06:01:19;96249.94;;;6.09;73.47
54994;BME280;40891;47.242;8.648;2022-12-29T06:03:44;96247.97;;;6.09;71.55
54994;BME280;40891;47.242;8.648;2022-12-29T06:06:10;96259.81;;;6.10;71.36
54994;BME280;40891;47.242;8.648;2022-12-29T06:08:35;96261.34;;;6.11;69.55
54994;BME280;40891;47.242;8.648;2022-12-29T06:11:00;96258.09;;;6.16;68.08
54994;BME280;40891;47.242;8.648;2022-12-29T06:13:26;96263.09;;;6.21;68.16
54994;BME280;40891;47.242;8.648;2022-12-29T06:15:52;96260.69;;;6.23;68.83
54994;BME280;40891;47.242;8.648;2022-12-29T06:18:18;96270.19;;;6.22;71.84
54994;BME280;40891;47.242;8.648;2022-12-29T06:20:44;96269.06;;;6.20;70.99
54994;BME280;40891;47.242;8.648;2022-12-29T06:23:09;96258.78;;;6.20;69.47
54994;BME280;40891;47.242;8.648;2022-12-29T06:25:36;96264.28;;;6.20;70.67
54994;BME280;40891;47.242;8.648;2022-12-29T06:28:03;96267.44;;;6.22;69.57
54994;BME280;40891;47.242;8.648;2022-12-29T06:30:30;96274.44;;;6.27;68.48
54994;BME280;40891;47.242;8.648;2022-12-29T06:32:55;96275.56;;;6.29;69.23
54994;BME280;40891;47.242;8.648;2022-12-29T06:35:21;96274.69;;;6.32;69.69
54994;BME280;40891;47.242;8.648;2022-12-29T06:37:48;96276.59;;;6.35;68.02
54994;BME280;40891;47.242;8.648;2022-12-29T06:40:13;96273.84;;;6.35;68.89
54994;BME280;40891;47.242;8.648;2022-12-29T06:42:38;96275.31;;;6.40;68.44
54994;BME280;40891;47.242;8.648;2022-12-29T06:45:05;96272.50;;;6.43;69.78
54994;BME280;40891;47.242;8.648;2022-12-29T06:47:32;96276.44;;;6.42;70.58
54994;BME280;40891;47.242;8.648;2022-12-29T06:49:58;96274.03;;;6.44;70.56
54994;BME280;40891;47.242;8.648;2022-12-29T06:52:24;96279.66;;;6.41;72.62
54994;BME280;40891;47.242;8.648;2022-12-29T06:54:49;96276.44;;;6.42;70.46
54994;BME280;40891;47.242;8.648;2022-12-29T06:57:15;96273.25;;;6.44;72.41
54994;BME280;40891;47.242;8.648;2022-12-29T06:59:40;96289.13;;;6.40;74.25
54994;BME280;40891;47.242;8.648;2022-12-29T07:02:06;96289.63;;;6.35;75.88
54994;BME280;40891;47.242;8.648;2022-12-29T07:04:31;96286.06;;;6.34;75.20
54994;BME280;40891;47.242;8.648;2022-12-29T07:06:57;96299.53;;;6.32;74.53
54994;BME280;40891;47.242;8.648;2022-12-29T07:09:22;96294.34;;;6.34;74.81
54994;BME280;40891;47.242;8.648;2022-12-29T07:11:47;96295.44;;;6.40;73.43
54994;BME280;40891;47.242;8.648;2022-12-29T07:14:13;96302.41;;;6.45;74.56
54994;BME280;40891;47.242;8.648;2022-12-29T07:16:38;96301.06;;;6.53;73.70
54994;BME280;40891;47.242;8.648;2022-12-29T07:19:04;96294.75;;;6.52;75.29
54994;BME280;40891;47.242;8.648;2022-12-29T07:21:30;96300.03;;;6.63;72.77
54994;BME280;40891;47.242;8.648;2022-12-29T07:23:55;96307.56;;;6.62;74.35
54994;BME280;40891;47.242;8.648;2022-12-29T07:26:21;96296.38;;;6.85;68.14
54994;BME280;40891;47.242;8.648;2022-12-29T07:28:46;96307.00;;;6.87;72.53
54994;BME280;40891;47.242;8.648;2022-12-29T07:31:20;96307.09;;;6.83;71.17
54994;BME280;40891;47.242;8.648;2022-12-29T07:33:46;96299.75;;;6.93;67.90
54994;BME280;40891;47.242;8.648;2022-12-29T07:36:13;96297.50;;;7.04;66.35
54994;BME280;40891;47.242;8.648;2022-12-29T07:38:39;96297.66;;;7.13;66.46
54994;BME280;40891;47.242;8.648;2022-12-29T07:41:05;96294.66;;;7.24;66.95
54994;BME280;40891;47.242;8.648;2022-12-29T07:43:30;96286.94;;;7.31;68.27
54994;BME280;40891;47.242;8.648;2022-12-29T07:45:56;96279.00;;;7.33;68.14
54994;BME280;40891;47.242;8.648;2022-12-29T07:48:21;96299.13;;;7.34;70.02
54994;BME280;40891;47.242;8.648;2022-12-29T07:50:47;96271.72;;;7.39;72.59
54994;BME280;40891;47.242;8.648;2022-12-29T07:53:12;96284.19;;;7.31;74.47
54994;BME280;40891;47.242;8.648;2022-12-29T07:55:38;96308.84;;;7.10;71.57
54994;BME280;40891;47.242;8.648;2022-12-29T07:58:03;96258.69;;;7.40;65.75
54994;BME280;40891;47.242;8.648;2022-12-29T08:00:29;96270.34;;;7.47;67.43
54994;BME280;40891;47.242;8.648;2022-12-29T08:02:54;96264.81;;;7.47;66.71
54994;BME280;40891;47.242;8.648;2022-12-29T08:05:20;96258.06;;;7.48;66.57
54994;BME280;40891;47.242;8.648;2022-12-29T08:07:46;96255.88;;;7.56;66.42
54994;BME280;40891;47.242;8.648;2022-12-29T08:10:13;96270.34;;;7.47;69.25
54994;BME280;40891;47.242;8.648;2022-12-29T08:12:39;96274.16;;;7.37;70.44
54994;BME280;40891;47.242;8.648;2022-12-29T08:15:06;96268.53;;;7.41;67.58
54994;BME280;40891;47.242;8.648;2022-12-29T08:17:32;96277.00;;;7.50;68.34
54994;BME280;40891;47.242;8.648;2022-12-29T08:19:58;96277.88;;;7.47;67.66
54994;BME280;40891;47.242;8.648;2022-12-29T08:22:23;96288.06;;;7.50;67.74
54994;BME280;40891;47.242;8.648;2022-12-29T08:24:49;96281.59;;;7.69;65.53
54994;BME280;40891;47.242;8.648;2022-12-29T08:27:14;96270.19;;;7.67;66.76
54994;BME280;40891;47.242;8.648;2022-12-29T08:29:40;96259.66;;;7.62;66.39
54994;BME280;40891;47.242;8.648;2022-12-29T08:32:05;96269.47;;;7.79;64.70
54994;BME280;40891;47.242;8.648;2022-12-29T08:34:31;96276.19;;;7.94;65.27
54994;BME280;40891;47.242;8.648;2022-12-29T08:36:57;96273.41;;;7.94;66.29
54994;BME280;40891;47.242;8.648;2022-12-29T08:39:22;96272.19;;;7.95;66.20
54994;BME280;40891;47.242;8.648;2022-12-29T08:41:48;96282.00;;;7.84;67.47
54994;BME280;40891;47.242;8.648;2022-12-29T08:44:13;96274.78;;;7.74;69.17
54994;BME280;40891;47.242;8.648;2022-12-29T08:46:38;96283.25;;;7.67;69.98
54994;BME280;40891;47.242;8.648;2022-12-29T08:49:04;96287.31;;;7.78;68.90
54994;BME280;40891;47.242;8.648;2022-12-29T08:51:30;96288.75;;;7.83;68.83
54994;BME280;40891;47.242;8.648;2022-12-29T08:53:55;96294.63;;;7.85;70.91
54994;BME280;40891;47.242;8.648;2022-12-29T08:56:21;96294.03;;;7.77;71.69
54994;BME280;40891;47.242;8.648;2022-12-29T08:58:49;96286.72;;;7.71;73.22
54994;BME280;40891;47.242;8.648;2022-12-29T09:01:15;96303.94;;;7.91;73.58
54994;BME280;40891;47.242;8.648;2022-12-29T09:03:40;96300.06;;;7.88;72.64
54994;BME280;40891;47.242;8.648;2022-12-29T09:06:06;96306.28;;;7.92;72.81
54994;BME280;40891;47.242;8.648;2022-12-29T09:08:31;96303.16;;;7.90;72.63
54994;BME280;40891;47.242;8.648;2022-12-29T09:13:36;96298.59;;;8.12;70.98
54994;BME280;40891;47.242;8.648;2022-12-29T09:16:02;96303.94;;;8.19;71.66
54994;BME280;40891;47.242;8.648;2022-12-29T09:18:27;96313.69;;;8.53;61.19
54994;BME280;40891;47.242;8.648;2022-12-29T09:21:01;96311.31;;;8.39;66.49
54994;BME280;40891;47.242;8.648;2022-12-29T09:23:27;96307.72;;;8.67;61.39
54994;BME280;40891;47.242;8.648;2022-12-29T09:25:53;96298.41;;;8.86;59.43
54994;BME280;40891;47.242;8.648;2022-12-29T09:28:19;96299.97;;;9.12;62.05
54994;BME280;40891;47.242;8.648;2022-12-29T09:30:45;96308.13;;;9.41;60.19
54994;BME280;40891;47.242;8.648;2022-12-29T09:33:10;96301.25;;;9.80;58.34
54994;BME280;40891;47.242;8.648;2022-12-29T09:35:35;96297.38;;;10.11;56.28
54994;BME280;40891;47.242;8.648;2022-12-29T09:38:01;96286.25;;;10.55;51.86
54994;BME280;40891;47.242;8.648;2022-12-29T09:40:30;96305.84;;;10.82;49.06
54994;BME280;40891;47.242;8.648;2022-12-29T09:43:05;96286.22;;;11.92;49.41
54994;BME280;40891;47.242;8.648;2022-12-29T09:48:28;96264.22;;;16.56;39.41
54994;BME280;40891;47.242;8.648;2022-12-29T09:51:00;96268.34;;;17.91;37.31
54994;BME280;40891;47.242;8.648;2022-12-29T09:53:41;96245.41;;;18.14;34.23
54994;BME280;40891;47.242;8.648;2022-12-29T09:56:14;96263.69;;;16.77;36.13
54994;BME280;40891;47.242;8.648;2022-12-29T09:58:45;96265.31;;;15.43;35.86
54994;BME280;40891;47.242;8.648;2022-12-29T10:03:57;96262.13;;;15.15;39.75
54994;BME280;40891;47.242;8.648;2022-12-29T10:06:51;96251.59;;;15.10;40.76
54994;BME280;40891;47.242;8.648;2022-12-29T10:09:24;96255.69;;;14.94;39.51
54994;BME280;40891;47.242;8.648;2022-12-29T10:25:21;96238.03;;;12.37;47.49
54994;BME280;40891;47.242;8.648;2022-12-29T10:27:49;96237.13;;;12.22;45.11
54994;BME280;40891;47.242;8.648;2022-12-29T10:30:15;96238.19;;;12.34;44.95
54994;BME280;40891;47.242;8.648;2022-12-29T10:32:54;96218.34;;;12.41;46.10
54994;BME280;40891;47.242;8.648;2022-12-29T10:35:23;96230.84;;;12.54;45.45
54994;BME280;40891;47.242;8.648;2022-12-29T10:38:00;96241.78;;;13.18;44.67
54994;BME280;40891;47.242;8.648;2022-12-29T10:40:38;96240.69;;;13.48;44.11
54994;BME280;40891;47.242;8.648;2022-12-29T10:43:29;96246.63;;;13.64;46.05
54994;BME280;40891;47.242;8.648;2022-12-29T10:45:58;96239.63;;;13.45;49.28
54994;BME280;40891;47.242;8.648;2022-12-29T10:48:30;96247.50;;;13.23;51.10
54994;BME280;40891;47.242;8.648;2022-12-29T10:50:58;96240.72;;;13.15;51.67
54994;BME280;40891;47.242;8.648;2022-12-29T10:53:30;96235.50;;;13.08;51.53
54994;BME280;40891;47.242;8.648;2022-12-29T10:56:00;96216.66;;;13.18;51.16
54994;BME280;40891;47.242;8.648;2022-12-29T10:58:27;96222.38;;;13.23;51.21
54994;BME280;40891;47.242;8.648;2022-12-29T11:00:54;96214.41;;;12.98;51.18
54994;BME280;40891;47.242;8.648;2022-12-29T11:06:02;96217.75;;;13.20;50.27
54994;BME280;40891;47.242;8.648;2022-12-29T11:08:33;96213.88;;;13.41;49.79
54994;BME280;40891;47.242;8.648;2022-12-29T11:11:03;96210.06;;;14.30;48.21
54994;BME280;40891;47.242;8.648;2022-12-29T11:13:31;96208.94;;;15.35;46.23
54994;BME280;40891;47.242;8.648;2022-12-29T11:15:56;96197.69;;;15.50;44.09
54994;BME280;40891;47.242;8.648;2022-12-29T11:18:34;96200.38;;;14.89;43.04
54994;BME280;40891;47.242;8.648;2022-12-29T11:21:04;96197.13;;;14.62;42.90
54994;BME280;40891;47.242;8.648;2022-12-29T11:23:36;96206.31;;;13.56;40.22
54994;BME280;40891;47.242;8.648;2022-12-29T11:26:21;96207.59;;;13.55;41.73
54994;BME280;40891;47.242;8.648;2022-12-29T11:31:44;96189.31;;;16.42;36.78
54994;BME280;40891;47.242;8.648;2022-12-29T11:34:17;96178.75;;;16.88;36.96
54994;BME280;40891;47.242;8.648;2022-12-29T11:36:44;96181.25;;;17.17;36.42
54994;BME280;40891;47.242;8.648;2022-12-29T11:39:30;96194.91;;;16.42;39.46
54994;BME280;40891;47.242;8.648;2022-12-29T11:41:57;96213.81;;;15.55;41.06
54994;BME280;40891;47.242;8.648;2022-12-29T11:44:23;96211.47;;;14.69;43.24
54994;BME280;40891;47.242;8.648;2022-12-29T11:46:51;96212.50;;;13.99;46.24
54994;BME280;40891;47.242;8.648;2022-12-29T11:49:22;96200.16;;;13.91;46.94
54994;BME280;40891;47.242;8.648;2022-12-29T11:51:49;96186.06;;;14.38;47.34
54994;BME280;40891;47.242;8.648;2022-12-29T11:54:21;96181.47;;;14.84;46.91
54994;BME280;40891;47.242;8.648;2022-12-29T11:56:48;96183.91;;;14.62;47.09
54994;BME280;40891;47.242;8.648;2022-12-29T12:04:37;96151.72;;;13.70;51.95
54994;BME280;40891;47.242;8.648;2022-12-29T12:07:17;96138.44;;;13.80;51.85
54994;BME280;40891;47.242;8.648;2022-12-29T12:12:34;96137.75;;;13.55;52.66
54994;BME280;40891;47.242;8.648;2022-12-29T12:15:01;96141.53;;;13.29;53.22
54994;BME280;40891;47.242;8.648;2022-12-29T12:17:43;96127.69;;;13.34;54.23
54994;BME280;40891;47.242;8.648;2022-12-29T12:20:23;96123.25;;;13.42;54.78
54994;BME280;40891;47.242;8.648;2022-12-29T12:23:20;96115.34;;;13.79;53.37
54994;BME280;40891;47.242;8.648;2022-12-29T12:25:57;96108.50;;;14.09;53.46
54994;BME280;40891;47.242;8.648;2022-12-29T12:28:32;96100.19;;;14.15;52.49
54994;BME280;40891;47.242;8.648;2022-12-29T12:31:01;96112.91;;;13.57;54.28
54994;BME280;40891;47.242;8.648;2022-12-29T12:33:35;96109.22;;;13.51;55.98
54994;BME280;40891;47.242;8.648;2022-12-29T12:36:35;96110.19;;;13.48;55.90
54994;BME280;40891;47.242;8.648;2022-12-29T12:39:14;96119.03;;;13.47;52.73
54994;BME280;40891;47.242;8.648;2022-12-29T12:47:24;96118.03;;;12.88;52.80
54994;BME280;40891;47.242;8.648;2022-12-29T12:58:48;96106.44;;;13.04;55.20
54994;BME280;40891;47.242;8.648;2022-12-29T13:01:45;96107.59;;;13.59;54.44
54994;BME280;40891;47.242;8.648;2022-12-29T13:07:47;96088.09;;;15.68;48.54
54994;BME280;40891;47.242;8.648;2022-12-29T13:15:43;96069.78;;;15.47;46.49
54994;BME280;40891;47.242;8.648;2022-12-29T13:21:02;96068.84;;;14.25;50.59
54994;BME280;40891;47.242;8.648;2022-12-29T13:23:39;96076.97;;;14.09;49.78
54994;BME280;40891;47.242;8.648;2022-12-29T13:29:34;96085.34;;;13.94;52.54
54994;BME280;40891;47.242;8.648;2022-12-29T13:34:56;96097.50;;;13.24;52.71
54994;BME280;40891;47.242;8.648;2022-12-29T13:37:31;96114.53;;;12.78;55.69
54994;BME280;40891;47.242;8.648;2022-12-29T13:40:04;96125.66;;;12.55;56.16
54994;BME280;40891;47.242;8.648;2022-12-29T13:42:36;96128.81;;;12.39;57.41
54994;BME280;40891;47.242;8.648;2022-12-29T13:45:05;96127.31;;;12.28;58.84
54994;BME280;40891;47.242;8.648;2022-12-29T13:47:39;96130.16;;;12.10;59.89
54994;BME280;40891;47.242;8.648;2022-12-29T13:50:12;96132.34;;;11.97;59.38
54994;BME280;40891;47.242;8.648;2022-12-29T13:58:16;96122.94;;;11.77;55.44
54994;BME280;40891;47.242;8.648;2022-12-29T14:01:02;96110.44;;;11.54;56.28
54994;BME280;40891;47.242;8.648;2022-12-29T14:03:54;96108.28;;;11.31;56.54
54994;BME280;40891;47.242;8.648;2022-12-29T14:06:27;96114.16;;;11.24;57.48
54994;BME280;40891;47.242;8.648;2022-12-29T14:08:58;96118.47;;;11.25;59.88
54994;BME280;40891;47.242;8.648;2022-12-29T14:11:36;96122.34;;;11.18;60.75
54994;BME280;40891;47.242;8.648;2022-12-29T14:14:25;96129.28;;;11.05;63.97
54994;BME280;40891;47.242;8.648;2022-12-29T14:16:53;96111.66;;;11.08;68.36
54994;BME280;40891;47.242;8.648;2022-12-29T14:19:28;96114.31;;;11.11;69.59
54994;BME280;40891;47.242;8.648;2022-12-29T14:21:57;96121.56;;;11.18;69.30
54994;BME280;40891;47.242;8.648;2022-12-29T14:34:56;96123.72;;;11.05;73.81
54994;BME280;40891;47.242;8.648;2022-12-29T14:37:35;96121.56;;;11.00;71.41
54994;BME280;40891;47.242;8.648;2022-12-29T14:42:46;96128.34;;;10.89;68.60
54994;BME280;40891;47.242;8.648;2022-12-29T14:47:41;96125.56;;;10.89;61.71
54994;BME280;40891;47.242;8.648;2022-12-29T14:50:15;96115.13;;;10.63;63.68
54994;BME280;40891;47.242;8.648;2022-12-29T14:52:56;96124.66;;;10.44;64.40
54994;BME280;40891;47.242;8.648;2022-12-29T14:55:36;96138.41;;;10.38;67.87
54994;BME280;40891;47.242;8.648;2022-12-29T14:58:05;96139.94;;;10.39;66.18
54994;BME280;40891;47.242;8.648;2022-12-29T15:00:35;96126.34;;;10.41;70.10
54994;BME280;40891;47.242;8.648;2022-12-29T15:03:05;96135.16;;;10.40;73.64
54994;BME280;40891;47.242;8.648;2022-12-29T15:08:03;96142.41;;;10.46;77.75
54994;BME280;40891;47.242;8.648;2022-12-29T15:10:38;96144.91;;;10.53;78.50
54994;BME280;40891;47.242;8.648;2022-12-29T15:13:15;96146.81;;;10.65;77.54
54994;BME280;40891;47.242;8.648;2022-12-29T15:15:41;96155.34;;;10.71;77.69
54994;BME280;40891;47.242;8.648;2022-12-29T15:18:24;96150.69;;;10.68;78.00
54994;BME280;40891;47.242;8.648;2022-12-29T15:21:04;96160.41;;;10.72;78.67